sensor_id;sensor_type;location;lat;lon;timestamp;P1;durP1;ratioP1;P2;durP2;ratioP2
76176;SDS011;64938;47.696;8.066;2023-06-10T00:01:05;6.57;;;5.97;;
76176;SDS011;64938;47.696;8.066;2023-06-10T00:03:32;6.60;;;6.00;;
76176;SDS011;64938;47.696;8.066;2023-06-10T00:05:57;7.20;;;6.60;;
76176;SDS011;64938;47.696;8.066;2023-06-10T00:08:23;6.27;;;5.67;;
76176;SDS011;64938;47.696;8.066;2023-06-10T00:10:50;6.20;;;5.70;;
76176;SDS011;64938;47.696;8.066;2023-06-10T00:13:16;7.53;;;6.40;;
76176;SDS011;64938;47.696;8.066;2023-06-10T00:15:41;7.17;;;6.57;;
76176;SDS011;64938;47.696;8.066;2023-06-10T00:18:07;7.27;;;6.67;;
76176;SDS011;64938;47.696;8.066;2023-06-10T00:20:35;7.37;;;6.77;;
76176;SDS011;64938;47.696;8.066;2023-06-10T00:23:03;6.80;;;6.27;;
76176;SDS011;64938;47.696;8.066;2023-06-10T00:25:30;7.07;;;6.47;;
76176;SDS011;64938;47.696;8.066;2023-06-10T00:27:59;7.13;;;6.63;;
76176;SDS011;64938;47.696;8.066;2023-06-10T00:30:25;6.97;;;6.47;;
76176;SDS011;64938;47.696;8.066;2023-06-10T00:32:53;7.47;;;6.90;;
76176;SDS011;64938;47.696;8.066;2023-06-10T00:35:18;6.93;;;6.40;;
76176;SDS011;64938;47.696;8.066;2023-06-10T00:37:44;7.50;;;6.90;;
76176;SDS011;64938;47.696;8.066;2023-06-10T00:40:14;6.80;;;6.30;;
76176;SDS011;64938;47.696;8.066;2023-06-10T00:42:39;7.60;;;6.93;;
76176;SDS011;64938;47.696;8.066;2023-06-10T00:45:05;6.70;;;6.10;;
76176;SDS011;64938;47.696;8.066;2023-06-10T00:47:31;7.40;;;6.80;;
76176;SDS011;64938;47.696;8.066;2023-06-10T00:49:57;8.73;;;7.87;;
76176;SDS011;64938;47.696;8.066;2023-06-10T00:52:24;7.10;;;6.50;;
76176;SDS011;64938;47.696;8.066;2023-06-10T00:54:54;8.20;;;6.80;;
76176;SDS011;64938;47.696;8.066;2023-06-10T00:57:24;7.40;;;6.70;;
76176;SDS011;64938;47.696;8.066;2023-06-10T00:59:51;7.53;;;6.83;;
76176;SDS011;64938;47.696;8.066;2023-06-10T01:02:17;7.73;;;7.13;;
76176;SDS011;64938;47.696;8.066;2023-06-10T01:04:43;8.40;;;7.70;;
76176;SDS011;64938;47.696;8.066;2023-06-10T01:07:28;8.07;;;7.37;;
76176;SDS011;64938;47.696;8.066;2023-06-10T01:10:02;9.67;;;7.40;;
76176;SDS011;64938;47.696;8.066;2023-06-10T01:15:24;8.10;;;7.37;;
76176;SDS011;64938;47.696;8.066;2023-06-10T01:18:01;9.90;;;7.37;;
76176;SDS011;64938;47.696;8.066;2023-06-10T01:20:28;8.93;;;8.13;;
76176;SDS011;64938;47.696;8.066;2023-06-10T01:22:57;8.20;;;7.50;;
76176;SDS011;64938;47.696;8.066;2023-06-10T01:25:23;8.30;;;7.60;;
76176;SDS011;64938;47.696;8.066;2023-06-10T01:28:08;8.43;;;7.63;;
76176;SDS011;64938;47.696;8.066;2023-06-10T01:30:49;8.37;;;7.63;;
76176;SDS011;64938;47.696;8.066;2023-06-10T01:33:25;7.50;;;6.80;;
76176;SDS011;64938;47.696;8.066;2023-06-10T01:35:53;8.60;;;7.90;;
76176;SDS011;64938;47.696;8.066;2023-06-10T01:38:22;8.30;;;7.60;;
76176;SDS011;64938;47.696;8.066;2023-06-10T01:40:57;8.63;;;7.77;;
76176;SDS011;64938;47.696;8.066;2023-06-10T01:43:23;8.53;;;7.83;;
76176;SDS011;64938;47.696;8.066;2023-06-10T01:45:48;9.20;;;8.50;;
76176;SDS011;64938;47.696;8.066;2023-06-10T01:48:19;9.53;;;8.67;;
76176;SDS011;64938;47.696;8.066;2023-06-10T01:50:45;8.50;;;7.80;;
76176;SDS011;64938;47.696;8.066;2023-06-10T01:53:10;8.93;;;8.13;;
76176;SDS011;64938;47.696;8.066;2023-06-10T01:55:36;9.00;;;8.27;;
76176;SDS011;64938;47.696;8.066;2023-06-10T01:58:02;8.20;;;7.50;;
76176;SDS011;64938;47.696;8.066;2023-06-10T02:00:27;8.57;;;7.87;;
76176;SDS011;64938;47.696;8.066;2023-06-10T02:02:53;9.10;;;8.40;;
76176;SDS011;64938;47.696;8.066;2023-06-10T02:05:18;8.20;;;7.50;;
76176;SDS011;64938;47.696;8.066;2023-06-10T02:07:48;9.10;;;8.30;;
76176;SDS011;64938;47.696;8.066;2023-06-10T02:10:13;9.10;;;8.20;;
76176;SDS011;64938;47.696;8.066;2023-06-10T02:12:39;8.77;;;8.07;;
76176;SDS011;64938;47.696;8.066;2023-06-10T02:15:05;9.67;;;8.67;;
76176;SDS011;64938;47.696;8.066;2023-06-10T02:17:30;8.47;;;7.77;;
76176;SDS011;64938;47.696;8.066;2023-06-10T02:19:57;8.90;;;8.10;;
76176;SDS011;64938;47.696;8.066;2023-06-10T02:22:25;9.10;;;8.30;;
76176;SDS011;64938;47.696;8.066;2023-06-10T02:24:55;9.03;;;8.23;;
76176;SDS011;64938;47.696;8.066;2023-06-10T02:27:33;8.60;;;7.90;;
76176;SDS011;64938;47.696;8.066;2023-06-10T02:29:59;9.30;;;8.50;;
76176;SDS011;64938;47.696;8.066;2023-06-10T02:32:25;9.03;;;8.23;;
76176;SDS011;64938;47.696;8.066;2023-06-10T02:34:51;8.83;;;8.13;;
76176;SDS011;64938;47.696;8.066;2023-06-10T02:37:17;9.70;;;8.97;;
76176;SDS011;64938;47.696;8.066;2023-06-10T02:39:46;10.33;;;9.43;;
76176;SDS011;64938;47.696;8.066;2023-06-10T02:42:11;9.80;;;8.90;;
76176;SDS011;64938;47.696;8.066;2023-06-10T02:44:37;9.43;;;8.63;;
76176;SDS011;64938;47.696;8.066;2023-06-10T02:47:07;11.10;;;10.20;;
76176;SDS011;64938;47.696;8.066;2023-06-10T02:49:33;10.03;;;9.23;;
76176;SDS011;64938;47.696;8.066;2023-06-10T02:51:58;10.33;;;9.53;;
76176;SDS011;64938;47.696;8.066;2023-06-10T02:54:24;9.57;;;8.80;;
76176;SDS011;64938;47.696;8.066;2023-06-10T02:56:50;10.40;;;9.60;;
76176;SDS011;64938;47.696;8.066;2023-06-10T02:59:22;9.40;;;8.70;;
76176;SDS011;64938;47.696;8.066;2023-06-10T03:01:52;9.90;;;9.20;;
76176;SDS011;64938;47.696;8.066;2023-06-10T03:04:17;10.70;;;9.90;;
76176;SDS011;64938;47.696;8.066;2023-06-10T03:06:48;10.77;;;9.77;;
76176;SDS011;64938;47.696;8.066;2023-06-10T03:09:14;9.53;;;8.73;;
76176;SDS011;64938;47.696;8.066;2023-06-10T03:11:41;11.40;;;10.30;;
76176;SDS011;64938;47.696;8.066;2023-06-10T03:14:06;9.77;;;9.03;;
76176;SDS011;64938;47.696;8.066;2023-06-10T03:16:32;10.47;;;9.50;;
76176;SDS011;64938;47.696;8.066;2023-06-10T03:18:58;11.53;;;10.63;;
76176;SDS011;64938;47.696;8.066;2023-06-10T03:21:25;11.70;;;10.80;;
76176;SDS011;64938;47.696;8.066;2023-06-10T03:23:52;11.03;;;10.10;;
76176;SDS011;64938;47.696;8.066;2023-06-10T03:26:17;11.33;;;10.33;;
76176;SDS011;64938;47.696;8.066;2023-06-10T03:28:46;12.13;;;11.13;;
76176;SDS011;64938;47.696;8.066;2023-06-10T03:31:12;12.37;;;11.17;;
76176;SDS011;64938;47.696;8.066;2023-06-10T03:33:38;11.73;;;10.73;;
76176;SDS011;64938;47.696;8.066;2023-06-10T03:36:16;12.00;;;10.80;;
76176;SDS011;64938;47.696;8.066;2023-06-10T03:38:41;11.40;;;10.50;;
76176;SDS011;64938;47.696;8.066;2023-06-10T03:41:07;10.63;;;9.73;;
76176;SDS011;64938;47.696;8.066;2023-06-10T03:43:32;11.70;;;10.70;;
76176;SDS011;64938;47.696;8.066;2023-06-10T03:45:58;11.33;;;10.10;;
76176;SDS011;64938;47.696;8.066;2023-06-10T03:48:27;12.47;;;11.27;;
76176;SDS011;64938;47.696;8.066;2023-06-10T03:50:53;11.23;;;10.23;;
76176;SDS011;64938;47.696;8.066;2023-06-10T03:53:18;11.43;;;10.33;;
76176;SDS011;64938;47.696;8.066;2023-06-10T03:55:44;11.70;;;10.53;;
76176;SDS011;64938;47.696;8.066;2023-06-10T03:58:10;11.60;;;10.60;;
76176;SDS011;64938;47.696;8.066;2023-06-10T04:00:38;11.83;;;10.83;;
76176;SDS011;64938;47.696;8.066;2023-06-10T04:03:09;12.13;;;11.13;;
76176;SDS011;64938;47.696;8.066;2023-06-10T04:05:39;11.77;;;10.70;;
76176;SDS011;64938;47.696;8.066;2023-06-10T04:08:07;11.80;;;10.80;;
76176;SDS011;64938;47.696;8.066;2023-06-10T04:10:33;11.60;;;10.50;;
76176;SDS011;64938;47.696;8.066;2023-06-10T04:12:58;11.33;;;10.43;;
76176;SDS011;64938;47.696;8.066;2023-06-10T04:15:25;11.40;;;10.50;;
76176;SDS011;64938;47.696;8.066;2023-06-10T04:17:51;11.57;;;10.57;;
76176;SDS011;64938;47.696;8.066;2023-06-10T04:20:17;11.57;;;10.67;;
76176;SDS011;64938;47.696;8.066;2023-06-10T04:22:43;10.93;;;10.10;;
76176;SDS011;64938;47.696;8.066;2023-06-10T04:25:09;10.30;;;9.60;;
76176;SDS011;64938;47.696;8.066;2023-06-10T04:27:35;9.43;;;8.63;;
76176;SDS011;64938;47.696;8.066;2023-06-10T04:30:01;9.40;;;8.70;;
76176;SDS011;64938;47.696;8.066;2023-06-10T04:32:28;8.23;;;7.70;;
76176;SDS011;64938;47.696;8.066;2023-06-10T04:34:54;9.20;;;8.50;;
76176;SDS011;64938;47.696;8.066;2023-06-10T04:37:20;8.70;;;8.00;;
76176;SDS011;64938;47.696;8.066;2023-06-10T04:39:46;9.18;;;8.48;;
76176;SDS011;64938;47.696;8.066;2023-06-10T04:42:11;8.93;;;8.32;;
76176;SDS011;64938;47.696;8.066;2023-06-10T04:44:37;9.00;;;8.20;;
76176;SDS011;64938;47.696;8.066;2023-06-10T04:47:04;9.10;;;8.40;;
76176;SDS011;64938;47.696;8.066;2023-06-10T04:49:33;8.15;;;7.40;;
76176;SDS011;64938;47.696;8.066;2023-06-10T04:51:59;7.65;;;7.15;;
76176;SDS011;64938;47.696;8.066;2023-06-10T04:54:29;8.05;;;7.38;;
76176;SDS011;64938;47.696;8.066;2023-06-10T04:56:55;8.75;;;8.15;;
76176;SDS011;64938;47.696;8.066;2023-06-10T04:59:20;7.55;;;7.05;;
76176;SDS011;64938;47.696;8.066;2023-06-10T05:01:46;8.00;;;7.30;;
76176;SDS011;64938;47.696;8.066;2023-06-10T05:04:11;7.55;;;7.05;;
76176;SDS011;64938;47.696;8.066;2023-06-10T05:06:37;7.40;;;6.75;;
76176;SDS011;64938;47.696;8.066;2023-06-10T05:09:03;7.10;;;6.60;;
76176;SDS011;64938;47.696;8.066;2023-06-10T05:11:28;7.32;;;6.82;;
76176;SDS011;64938;47.696;8.066;2023-06-10T05:13:54;7.35;;;6.65;;
76176;SDS011;64938;47.696;8.066;2023-06-10T05:16:20;7.25;;;6.80;;
76176;SDS011;64938;47.696;8.066;2023-06-10T05:18:46;6.85;;;6.45;;
76176;SDS011;64938;47.696;8.066;2023-06-10T05:21:11;7.43;;;6.82;;
76176;SDS011;64938;47.696;8.066;2023-06-10T05:23:37;6.90;;;6.40;;
76176;SDS011;64938;47.696;8.066;2023-06-10T05:26:03;7.60;;;7.05;;
76176;SDS011;64938;47.696;8.066;2023-06-10T05:28:28;7.30;;;6.80;;
76176;SDS011;64938;47.696;8.066;2023-06-10T05:31:01;7.07;;;6.57;;
76176;SDS011;64938;47.696;8.066;2023-06-10T05:33:26;7.10;;;6.70;;
76176;SDS011;64938;47.696;8.066;2023-06-10T05:35:52;7.15;;;6.75;;
76176;SDS011;64938;47.696;8.066;2023-06-10T05:38:18;7.00;;;6.50;;
76176;SDS011;64938;47.696;8.066;2023-06-10T05:40:43;7.32;;;6.82;;
76176;SDS011;64938;47.696;8.066;2023-06-10T05:43:09;7.43;;;6.93;;
76176;SDS011;64938;47.696;8.066;2023-06-10T05:45:36;6.53;;;6.03;;
76176;SDS011;64938;47.696;8.066;2023-06-10T05:48:02;7.15;;;6.65;;
76176;SDS011;64938;47.696;8.066;2023-06-10T05:50:28;7.70;;;7.00;;
76176;SDS011;64938;47.696;8.066;2023-06-10T05:52:54;7.20;;;6.78;;
76176;SDS011;64938;47.696;8.066;2023-06-10T05:55:21;7.25;;;6.65;;
76176;SDS011;64938;47.696;8.066;2023-06-10T05:57:47;7.00;;;6.50;;
76176;SDS011;64938;47.696;8.066;2023-06-10T06:00:12;8.00;;;7.50;;
76176;SDS011;64938;47.696;8.066;2023-06-10T06:02:38;6.90;;;6.50;;
76176;SDS011;64938;47.696;8.066;2023-06-10T06:05:04;6.80;;;6.20;;
76176;SDS011;64938;47.696;8.066;2023-06-10T06:07:32;7.13;;;6.60;;
76176;SDS011;64938;47.696;8.066;2023-06-10T06:09:58;7.10;;;6.68;;
76176;SDS011;64938;47.696;8.066;2023-06-10T06:12:24;7.38;;;6.88;;
76176;SDS011;64938;47.696;8.066;2023-06-10T06:14:51;7.15;;;6.65;;
76176;SDS011;64938;47.696;8.066;2023-06-10T06:17:17;7.38;;;6.88;;
76176;SDS011;64938;47.696;8.066;2023-06-10T06:19:43;7.10;;;6.50;;
76176;SDS011;64938;47.696;8.066;2023-06-10T06:22:08;7.65;;;7.00;;
76176;SDS011;64938;47.696;8.066;2023-06-10T06:24:34;6.63;;;6.22;;
76176;SDS011;64938;47.696;8.066;2023-06-10T06:26:59;6.88;;;6.38;;
76176;SDS011;64938;47.696;8.066;2023-06-10T06:29:25;7.15;;;6.60;;
76176;SDS011;64938;47.696;8.066;2023-06-10T06:31:51;7.70;;;7.20;;
76176;SDS011;64938;47.696;8.066;2023-06-10T06:34:17;7.50;;;6.90;;
76176;SDS011;64938;47.696;8.066;2023-06-10T06:36:43;7.68;;;7.18;;
76176;SDS011;64938;47.696;8.066;2023-06-10T06:39:09;7.57;;;7.07;;
76176;SDS011;64938;47.696;8.066;2023-06-10T06:41:34;8.25;;;7.70;;
76176;SDS011;64938;47.696;8.066;2023-06-10T06:44:00;7.32;;;6.82;;
76176;SDS011;64938;47.696;8.066;2023-06-10T06:46:25;7.63;;;7.13;;
76176;SDS011;64938;47.696;8.066;2023-06-10T06:48:51;7.57;;;6.97;;
76176;SDS011;64938;47.696;8.066;2023-06-10T06:51:16;7.38;;;6.97;;
76176;SDS011;64938;47.696;8.066;2023-06-10T06:53:42;7.93;;;7.43;;
76176;SDS011;64938;47.696;8.066;2023-06-10T06:56:13;7.53;;;7.03;;
76176;SDS011;64938;47.696;8.066;2023-06-10T06:58:38;7.72;;;7.03;;
76176;SDS011;64938;47.696;8.066;2023-06-10T07:01:09;7.03;;;6.63;;
76176;SDS011;64938;47.696;8.066;2023-06-10T07:03:36;7.57;;;7.07;;
76176;SDS011;64938;47.696;8.066;2023-06-10T07:06:01;7.93;;;7.43;;
76176;SDS011;64938;47.696;8.066;2023-06-10T07:08:29;8.10;;;7.50;;
76176;SDS011;64938;47.696;8.066;2023-06-10T07:10:54;8.02;;;7.43;;
76176;SDS011;64938;47.696;8.066;2023-06-10T07:13:20;7.85;;;7.25;;
76176;SDS011;64938;47.696;8.066;2023-06-10T07:15:47;9.30;;;8.70;;
76176;SDS011;64938;47.696;8.066;2023-06-10T07:18:17;7.30;;;6.80;;
76176;SDS011;64938;47.696;8.066;2023-06-10T07:20:42;7.50;;;7.10;;
76176;SDS011;64938;47.696;8.066;2023-06-10T07:23:10;7.97;;;7.47;;
76176;SDS011;64938;47.696;8.066;2023-06-10T07:25:35;7.78;;;7.28;;
76176;SDS011;64938;47.696;8.066;2023-06-10T07:28:01;7.70;;;7.20;;
76176;SDS011;64938;47.696;8.066;2023-06-10T07:30:27;7.72;;;7.22;;
76176;SDS011;64938;47.696;8.066;2023-06-10T07:32:53;7.65;;;7.05;;
76176;SDS011;64938;47.696;8.066;2023-06-10T07:35:18;8.05;;;7.55;;
76176;SDS011;64938;47.696;8.066;2023-06-10T07:37:44;8.05;;;7.35;;
76176;SDS011;64938;47.696;8.066;2023-06-10T07:40:11;8.10;;;7.60;;
76176;SDS011;64938;47.696;8.066;2023-06-10T07:42:37;7.80;;;7.30;;
76176;SDS011;64938;47.696;8.066;2023-06-10T07:45:03;8.88;;;7.95;;
76176;SDS011;64938;47.696;8.066;2023-06-10T07:47:29;8.15;;;7.45;;
76176;SDS011;64938;47.696;8.066;2023-06-10T07:49:55;7.43;;;6.93;;
76176;SDS011;64938;47.696;8.066;2023-06-10T07:52:21;8.05;;;7.53;;
76176;SDS011;64938;47.696;8.066;2023-06-10T07:54:47;8.02;;;7.43;;
76176;SDS011;64938;47.696;8.066;2023-06-10T07:57:12;7.40;;;6.90;;
76176;SDS011;64938;47.696;8.066;2023-06-10T07:59:38;7.32;;;6.82;;
76176;SDS011;64938;47.696;8.066;2023-06-10T08:02:04;7.35;;;6.95;;
76176;SDS011;64938;47.696;8.066;2023-06-10T08:04:30;7.90;;;7.40;;
76176;SDS011;64938;47.696;8.066;2023-06-10T08:06:56;8.10;;;7.60;;
76176;SDS011;64938;47.696;8.066;2023-06-10T08:09:21;8.68;;;8.10;;
76176;SDS011;64938;47.696;8.066;2023-06-10T08:11:48;8.02;;;7.53;;
76176;SDS011;64938;47.696;8.066;2023-06-10T08:14:14;8.45;;;7.85;;
76176;SDS011;64938;47.696;8.066;2023-06-10T08:16:42;8.20;;;7.50;;
76176;SDS011;64938;47.696;8.066;2023-06-10T08:19:08;7.75;;;7.20;;
76176;SDS011;64938;47.696;8.066;2023-06-10T08:21:34;7.38;;;6.97;;
76176;SDS011;64938;47.696;8.066;2023-06-10T08:24:02;8.23;;;7.63;;
76176;SDS011;64938;47.696;8.066;2023-06-10T08:26:28;8.25;;;7.72;;
76176;SDS011;64938;47.696;8.066;2023-06-10T08:28:54;8.15;;;7.55;;
76176;SDS011;64938;47.696;8.066;2023-06-10T08:31:20;7.95;;;7.45;;
76176;SDS011;64938;47.696;8.066;2023-06-10T08:33:46;8.43;;;7.93;;
76176;SDS011;64938;47.696;8.066;2023-06-10T08:36:12;7.68;;;7.18;;
76176;SDS011;64938;47.696;8.066;2023-06-10T08:38:37;7.18;;;6.78;;
76176;SDS011;64938;47.696;8.066;2023-06-10T08:41:04;8.25;;;7.68;;
76176;SDS011;64938;47.696;8.066;2023-06-10T08:43:36;8.20;;;7.70;;
76176;SDS011;64938;47.696;8.066;2023-06-10T08:46:03;8.23;;;7.72;;
76176;SDS011;64938;47.696;8.066;2023-06-10T08:48:31;8.88;;;8.27;;
76176;SDS011;64938;47.696;8.066;2023-06-10T08:51:00;8.32;;;7.82;;
76176;SDS011;64938;47.696;8.066;2023-06-10T08:53:29;8.85;;;8.25;;
76176;SDS011;64938;47.696;8.066;2023-06-10T08:55:56;9.55;;;8.93;;
76176;SDS011;64938;47.696;8.066;2023-06-10T08:58:24;8.38;;;7.88;;
76176;SDS011;64938;47.696;8.066;2023-06-10T09:00:50;8.60;;;8.05;;
76176;SDS011;64938;47.696;8.066;2023-06-10T09:03:18;8.32;;;7.82;;
76176;SDS011;64938;47.696;8.066;2023-06-10T09:05:45;8.10;;;7.50;;
76176;SDS011;64938;47.696;8.066;2023-06-10T09:08:10;9.30;;;8.45;;
76176;SDS011;64938;47.696;8.066;2023-06-10T09:10:36;7.88;;;7.18;;
76176;SDS011;64938;47.696;8.066;2023-06-10T09:13:02;8.23;;;7.72;;
76176;SDS011;64938;47.696;8.066;2023-06-10T09:15:27;8.38;;;7.78;;
76176;SDS011;64938;47.696;8.066;2023-06-10T09:17:53;9.10;;;8.50;;
76176;SDS011;64938;47.696;8.066;2023-06-10T09:20:19;8.35;;;7.75;;
76176;SDS011;64938;47.696;8.066;2023-06-10T09:22:44;8.45;;;7.88;;
76176;SDS011;64938;47.696;8.066;2023-06-10T09:25:11;9.32;;;8.63;;
76176;SDS011;64938;47.696;8.066;2023-06-10T09:27:50;9.05;;;8.25;;
76176;SDS011;64938;47.696;8.066;2023-06-10T09:30:31;8.80;;;8.30;;
76176;SDS011;64938;47.696;8.066;2023-06-10T09:32:59;8.77;;;8.20;;
76176;SDS011;64938;47.696;8.066;2023-06-10T09:35:46;8.85;;;8.25;;
76176;SDS011;64938;47.696;8.066;2023-06-10T09:38:20;10.68;;;9.35;;
76176;SDS011;64938;47.696;8.066;2023-06-10T09:40:53;10.40;;;9.65;;
76176;SDS011;64938;47.696;8.066;2023-06-10T09:43:20;9.90;;;9.20;;
76176;SDS011;64938;47.696;8.066;2023-06-10T09:45:50;10.43;;;9.73;;
76176;SDS011;64938;47.696;8.066;2023-06-10T09:48:19;9.13;;;8.52;;
76176;SDS011;64938;47.696;8.066;2023-06-10T09:50:45;10.10;;;9.40;;
76176;SDS011;64938;47.696;8.066;2023-06-10T09:53:11;9.55;;;8.82;;
76176;SDS011;64938;47.696;8.066;2023-06-10T09:55:38;9.68;;;8.98;;
76176;SDS011;64938;47.696;8.066;2023-06-10T09:58:06;9.90;;;9.20;;
76176;SDS011;64938;47.696;8.066;2023-06-10T10:00:35;10.35;;;9.60;;
76176;SDS011;64938;47.696;8.066;2023-06-10T10:03:01;9.20;;;8.57;;
76176;SDS011;64938;47.696;8.066;2023-06-10T10:05:29;10.60;;;9.82;;
76176;SDS011;64938;47.696;8.066;2023-06-10T10:07:55;9.27;;;8.68;;
76176;SDS011;64938;47.696;8.066;2023-06-10T10:10:21;9.48;;;8.68;;
76176;SDS011;64938;47.696;8.066;2023-06-10T10:12:47;10.15;;;9.07;;
76176;SDS011;64938;47.696;8.066;2023-06-10T10:15:15;10.13;;;9.43;;
76176;SDS011;64938;47.696;8.066;2023-06-10T10:17:49;10.32;;;9.63;;
76176;SDS011;64938;47.696;8.066;2023-06-10T10:20:20;9.68;;;8.98;;
76176;SDS011;64938;47.696;8.066;2023-06-10T10:22:50;9.45;;;8.63;;
76176;SDS011;64938;47.696;8.066;2023-06-10T10:25:28;10.35;;;9.35;;
76176;SDS011;64938;47.696;8.066;2023-06-10T10:30:30;9.15;;;8.55;;
76176;SDS011;64938;47.696;8.066;2023-06-10T10:33:06;10.00;;;9.27;;
76176;SDS011;64938;47.696;8.066;2023-06-10T10:35:34;10.00;;;9.27;;
76176;SDS011;64938;47.696;8.066;2023-06-10T10:38:01;9.95;;;9.15;;
76176;SDS011;64938;47.696;8.066;2023-06-10T10:40:29;8.60;;;8.00;;
76176;SDS011;64938;47.696;8.066;2023-06-10T10:42:56;11.27;;;9.02;;
76176;SDS011;64938;47.696;8.066;2023-06-10T10:45:22;9.00;;;8.40;;
76176;SDS011;64938;47.696;8.066;2023-06-10T10:47:54;9.95;;;9.25;;
76176;SDS011;64938;47.696;8.066;2023-06-10T10:50:22;8.15;;;7.55;;
76176;SDS011;64938;47.696;8.066;2023-06-10T10:53:00;9.90;;;9.02;;
76176;SDS011;64938;47.696;8.066;2023-06-10T10:55:26;9.30;;;8.60;;
76176;SDS011;64938;47.696;8.066;2023-06-10T10:58:14;9.50;;;8.80;;
76176;SDS011;64938;47.696;8.066;2023-06-10T11:00:44;10.13;;;9.43;;
76176;SDS011;64938;47.696;8.066;2023-06-10T11:03:14;8.50;;;7.93;;
76176;SDS011;64938;47.696;8.066;2023-06-10T11:05:45;8.98;;;8.38;;
76176;SDS011;64938;47.696;8.066;2023-06-10T11:08:14;8.73;;;8.13;;
76176;SDS011;64938;47.696;8.066;2023-06-10T11:11:00;8.43;;;7.82;;
76176;SDS011;64938;47.696;8.066;2023-06-10T11:13:27;9.63;;;8.82;;
76176;SDS011;64938;47.696;8.066;2023-06-10T11:15:56;9.45;;;8.65;;
76176;SDS011;64938;47.696;8.066;2023-06-10T11:18:27;8.98;;;8.27;;
76176;SDS011;64938;47.696;8.066;2023-06-10T11:20:59;8.90;;;8.20;;
76176;SDS011;64938;47.696;8.066;2023-06-10T11:23:39;9.43;;;8.73;;
76176;SDS011;64938;47.696;8.066;2023-06-10T11:26:12;8.30;;;7.70;;
76176;SDS011;64938;47.696;8.066;2023-06-10T11:28:41;8.75;;;7.97;;
76176;SDS011;64938;47.696;8.066;2023-06-10T11:31:28;9.23;;;8.35;;
76176;SDS011;64938;47.696;8.066;2023-06-10T11:34:00;9.77;;;9.07;;
76176;SDS011;64938;47.696;8.066;2023-06-10T11:36:28;9.15;;;8.45;;
76176;SDS011;64938;47.696;8.066;2023-06-10T11:38:58;9.25;;;8.57;;
76176;SDS011;64938;47.696;8.066;2023-06-10T11:41:26;9.43;;;8.68;;
76176;SDS011;64938;47.696;8.066;2023-06-10T11:44:12;9.73;;;8.90;;
76176;SDS011;64938;47.696;8.066;2023-06-10T11:46:38;9.45;;;8.75;;
76176;SDS011;64938;47.696;8.066;2023-06-10T11:49:08;9.65;;;8.95;;
76176;SDS011;64938;47.696;8.066;2023-06-10T11:51:35;9.05;;;8.23;;
76176;SDS011;64938;47.696;8.066;2023-06-10T11:54:03;9.00;;;8.20;;
76176;SDS011;64938;47.696;8.066;2023-06-10T11:56:32;8.35;;;7.75;;
76176;SDS011;64938;47.696;8.066;2023-06-10T11:59:04;8.52;;;7.82;;
76176;SDS011;64938;47.696;8.066;2023-06-10T12:01:38;8.35;;;7.85;;
76176;SDS011;64938;47.696;8.066;2023-06-10T12:04:17;7.88;;;7.28;;
76176;SDS011;64938;47.696;8.066;2023-06-10T12:06:52;7.97;;;7.20;;
76176;SDS011;64938;47.696;8.066;2023-06-10T12:09:25;8.10;;;7.60;;
76176;SDS011;64938;47.696;8.066;2023-06-10T12:11:54;8.95;;;8.35;;
76176;SDS011;64938;47.696;8.066;2023-06-10T12:17:44;8.38;;;7.63;;
76176;SDS011;64938;47.696;8.066;2023-06-10T12:20:29;9.13;;;8.52;;
76176;SDS011;64938;47.696;8.066;2023-06-10T12:22:58;9.15;;;8.45;;
76176;SDS011;64938;47.696;8.066;2023-06-10T12:25:25;8.88;;;8.27;;
76176;SDS011;64938;47.696;8.066;2023-06-10T12:27:59;8.00;;;7.50;;
76176;SDS011;64938;47.696;8.066;2023-06-10T12:30:25;8.52;;;7.90;;
76176;SDS011;64938;47.696;8.066;2023-06-10T12:32:54;8.68;;;7.97;;
76176;SDS011;64938;47.696;8.066;2023-06-10T12:35:21;9.10;;;8.40;;
76176;SDS011;64938;47.696;8.066;2023-06-10T12:38:03;8.90;;;8.07;;
76176;SDS011;64938;47.696;8.066;2023-06-10T12:40:34;8.23;;;7.63;;
76176;SDS011;64938;47.696;8.066;2023-06-10T12:43:01;8.57;;;7.70;;
76176;SDS011;64938;47.696;8.066;2023-06-10T12:45:34;8.38;;;7.78;;
76176;SDS011;64938;47.696;8.066;2023-06-10T12:48:07;7.63;;;7.13;;
76176;SDS011;64938;47.696;8.066;2023-06-10T12:50:43;7.75;;;7.15;;
76176;SDS011;64938;47.696;8.066;2023-06-10T12:53:13;8.05;;;7.55;;
76176;SDS011;64938;47.696;8.066;2023-06-10T12:55:39;7.70;;;7.00;;
76176;SDS011;64938;47.696;8.066;2023-06-10T12:58:05;7.90;;;7.40;;
76176;SDS011;64938;47.696;8.066;2023-06-10T13:00:35;7.70;;;7.20;;
76176;SDS011;64938;47.696;8.066;2023-06-10T13:03:01;7.57;;;6.90;;
76176;SDS011;64938;47.696;8.066;2023-06-10T13:05:28;7.45;;;6.95;;
76176;SDS011;64938;47.696;8.066;2023-06-10T13:07:55;7.55;;;7.05;;
76176;SDS011;64938;47.696;8.066;2023-06-10T13:10:22;8.43;;;7.82;;
76176;SDS011;64938;47.696;8.066;2023-06-10T13:12:50;7.38;;;6.78;;
76176;SDS011;64938;47.696;8.066;2023-06-10T13:15:22;7.50;;;7.00;;
76176;SDS011;64938;47.696;8.066;2023-06-10T13:17:52;7.78;;;7.28;;
76176;SDS011;64938;47.696;8.066;2023-06-10T13:20:18;7.18;;;6.57;;
76176;SDS011;64938;47.696;8.066;2023-06-10T13:22:45;7.45;;;6.85;;
76176;SDS011;64938;47.696;8.066;2023-06-10T13:25:13;7.70;;;7.10;;
76176;SDS011;64938;47.696;8.066;2023-06-10T13:27:39;6.72;;;6.22;;
76176;SDS011;64938;47.696;8.066;2023-06-10T13:30:08;6.78;;;6.30;;
76176;SDS011;64938;47.696;8.066;2023-06-10T13:32:37;7.10;;;6.60;;
76176;SDS011;64938;47.696;8.066;2023-06-10T13:35:03;7.32;;;6.72;;
76176;SDS011;64938;47.696;8.066;2023-06-10T13:37:32;7.18;;;6.57;;
76176;SDS011;64938;47.696;8.066;2023-06-10T13:39:58;6.85;;;6.35;;
76176;SDS011;64938;47.696;8.066;2023-06-10T13:42:24;6.50;;;6.00;;
76176;SDS011;64938;47.696;8.066;2023-06-10T13:44:51;6.68;;;6.20;;
76176;SDS011;64938;47.696;8.066;2023-06-10T13:47:17;7.20;;;6.60;;
76176;SDS011;64938;47.696;8.066;2023-06-10T13:49:42;6.88;;;6.35;;
76176;SDS011;64938;47.696;8.066;2023-06-10T13:52:08;7.18;;;6.68;;
76176;SDS011;64938;47.696;8.066;2023-06-10T13:54:34;7.32;;;6.82;;
76176;SDS011;64938;47.696;8.066;2023-06-10T13:57:03;6.90;;;6.40;;
76176;SDS011;64938;47.696;8.066;2023-06-10T13:59:28;7.40;;;6.90;;
76176;SDS011;64938;47.696;8.066;2023-06-10T14:01:54;7.20;;;6.60;;
76176;SDS011;64938;47.696;8.066;2023-06-10T14:04:21;6.93;;;6.43;;
76176;SDS011;64938;47.696;8.066;2023-06-10T14:06:47;8.45;;;7.78;;
76176;SDS011;64938;47.696;8.066;2023-06-10T14:09:13;6.95;;;6.45;;
76176;SDS011;64938;47.696;8.066;2023-06-10T14:11:39;8.32;;;7.63;;
76176;SDS011;64938;47.696;8.066;2023-06-10T14:14:05;7.22;;;6.72;;
76176;SDS011;64938;47.696;8.066;2023-06-10T14:16:33;7.15;;;6.55;;
76176;SDS011;64938;47.696;8.066;2023-06-10T14:18:59;7.22;;;6.72;;
76176;SDS011;64938;47.696;8.066;2023-06-10T14:21:25;8.10;;;7.40;;
76176;SDS011;64938;47.696;8.066;2023-06-10T14:23:51;7.00;;;6.50;;
76176;SDS011;64938;47.696;8.066;2023-06-10T14:26:18;6.95;;;6.45;;
76176;SDS011;64938;47.696;8.066;2023-06-10T14:28:47;6.90;;;6.40;;
76176;SDS011;64938;47.696;8.066;2023-06-10T14:31:14;7.75;;;7.18;;
76176;SDS011;64938;47.696;8.066;2023-06-10T14:33:42;7.40;;;6.90;;
76176;SDS011;64938;47.696;8.066;2023-06-10T14:36:09;7.00;;;6.40;;
76176;SDS011;64938;47.696;8.066;2023-06-10T14:38:38;7.07;;;6.57;;
76176;SDS011;64938;47.696;8.066;2023-06-10T14:41:07;6.47;;;6.07;;
76176;SDS011;64938;47.696;8.066;2023-06-10T14:43:34;6.68;;;6.18;;
76176;SDS011;64938;47.696;8.066;2023-06-10T14:45:59;6.78;;;6.28;;
76176;SDS011;64938;47.696;8.066;2023-06-10T14:48:25;6.10;;;5.60;;
76176;SDS011;64938;47.696;8.066;2023-06-10T14:50:53;5.88;;;5.47;;
76176;SDS011;64938;47.696;8.066;2023-06-10T14:53:20;5.82;;;5.22;;
76176;SDS011;64938;47.696;8.066;2023-06-10T14:55:46;5.32;;;4.82;;
76176;SDS011;64938;47.696;8.066;2023-06-10T14:58:12;6.03;;;5.63;;